sensor_id;sensor_type;location;lat;lon;timestamp;P1;durP1;ratioP1;P2;durP2;ratioP2
38132;SDS011;23948;43.252;26.572;2023-04-25T00:00:13;14.00;;;5.65;;
38132;SDS011;23948;43.252;26.572;2023-04-25T00:02:38;10.93;;;5.50;;
38132;SDS011;23948;43.252;26.572;2023-04-25T00:05:04;10.50;;;5.45;;
38132;SDS011;23948;43.252;26.572;2023-04-25T00:07:30;8.40;;;5.15;;
38132;SDS011;23948;43.252;26.572;2023-04-25T00:09:56;11.07;;;5.57;;
38132;SDS011;23948;43.252;26.572;2023-04-25T00:12:21;10.93;;;5.75;;
38132;SDS011;23948;43.252;26.572;2023-04-25T00:14:47;11.55;;;5.88;;
38132;SDS011;23948;43.252;26.572;2023-04-25T00:17:14;8.98;;;5.30;;
38132;SDS011;23948;43.252;26.572;2023-04-25T00:19:40;9.60;;;5.32;;
38132;SDS011;23948;43.252;26.572;2023-04-25T00:22:05;9.05;;;5.35;;
38132;SDS011;23948;43.252;26.572;2023-04-25T00:24:30;12.98;;;5.70;;
38132;SDS011;23948;43.252;26.572;2023-04-25T00:26:56;11.77;;;5.43;;
38132;SDS011;23948;43.252;26.572;2023-04-25T00:29:21;9.45;;;4.75;;
38132;SDS011;23948;43.252;26.572;2023-04-25T00:31:46;10.18;;;5.72;;
38132;SDS011;23948;43.252;26.572;2023-04-25T00:34:11;12.32;;;5.68;;
38132;SDS011;23948;43.252;26.572;2023-04-25T00:36:37;11.77;;;5.38;;
38132;SDS011;23948;43.252;26.572;2023-04-25T00:39:03;11.68;;;6.00;;
38132;SDS011;23948;43.252;26.572;2023-04-25T00:41:29;10.20;;;5.15;;
38132;SDS011;23948;43.252;26.572;2023-04-25T00:43:55;11.00;;;5.75;;
38132;SDS011;23948;43.252;26.572;2023-04-25T00:46:21;9.68;;;5.75;;
38132;SDS011;23948;43.252;26.572;2023-04-25T00:48:47;13.60;;;6.13;;
38132;SDS011;23948;43.252;26.572;2023-04-25T00:51:21;10.65;;;5.70;;
38132;SDS011;23948;43.252;26.572;2023-04-25T00:53:47;8.23;;;5.22;;
38132;SDS011;23948;43.252;26.572;2023-04-25T00:56:13;10.23;;;5.53;;
38132;SDS011;23948;43.252;26.572;2023-04-25T00:58:39;10.68;;;5.60;;
38132;SDS011;23948;43.252;26.572;2023-04-25T01:01:05;14.48;;;6.10;;
38132;SDS011;23948;43.252;26.572;2023-04-25T01:03:32;8.18;;;5.63;;
38132;SDS011;23948;43.252;26.572;2023-04-25T01:05:58;9.10;;;5.65;;
38132;SDS011;23948;43.252;26.572;2023-04-25T01:08:24;14.02;;;6.10;;
38132;SDS011;23948;43.252;26.572;2023-04-25T01:10:52;11.65;;;5.43;;
38132;SDS011;23948;43.252;26.572;2023-04-25T01:13:17;10.02;;;5.90;;
38132;SDS011;23948;43.252;26.572;2023-04-25T01:15:42;11.25;;;5.90;;
38132;SDS011;23948;43.252;26.572;2023-04-25T01:18:08;10.20;;;5.35;;
38132;SDS011;23948;43.252;26.572;2023-04-25T01:20:34;8.35;;;5.25;;
38132;SDS011;23948;43.252;26.572;2023-04-25T01:23:00;13.93;;;7.80;;
38132;SDS011;23948;43.252;26.572;2023-04-25T01:25:27;12.45;;;7.47;;
38132;SDS011;23948;43.252;26.572;2023-04-25T01:27:52;11.95;;;7.60;;
38132;SDS011;23948;43.252;26.572;2023-04-25T01:30:17;16.35;;;7.78;;
38132;SDS011;23948;43.252;26.572;2023-04-25T01:32:43;13.48;;;8.05;;
38132;SDS011;23948;43.252;26.572;2023-04-25T01:35:09;15.85;;;7.53;;
38132;SDS011;23948;43.252;26.572;2023-04-25T01:37:36;11.38;;;5.93;;
38132;SDS011;23948;43.252;26.572;2023-04-25T01:40:02;11.00;;;5.75;;
38132;SDS011;23948;43.252;26.572;2023-04-25T01:42:27;11.23;;;5.70;;
38132;SDS011;23948;43.252;26.572;2023-04-25T01:44:53;10.90;;;5.90;;
38132;SDS011;23948;43.252;26.572;2023-04-25T01:47:18;12.05;;;5.68;;
38132;SDS011;23948;43.252;26.572;2023-04-25T01:49:43;10.38;;;5.97;;
38132;SDS011;23948;43.252;26.572;2023-04-25T01:52:09;14.70;;;7.15;;
38132;SDS011;23948;43.252;26.572;2023-04-25T01:54:34;16.13;;;6.13;;
38132;SDS011;23948;43.252;26.572;2023-04-25T01:56:59;11.93;;;5.90;;
38132;SDS011;23948;43.252;26.572;2023-04-25T01:59:25;10.20;;;6.30;;
38132;SDS011;23948;43.252;26.572;2023-04-25T02:01:50;12.15;;;6.30;;
38132;SDS011;23948;43.252;26.572;2023-04-25T02:04:16;12.15;;;6.43;;
38132;SDS011;23948;43.252;26.572;2023-04-25T02:06:41;12.05;;;6.80;;
38132;SDS011;23948;43.252;26.572;2023-04-25T02:09:06;13.77;;;7.72;;
38132;SDS011;23948;43.252;26.572;2023-04-25T02:11:31;12.00;;;7.30;;
38132;SDS011;23948;43.252;26.572;2023-04-25T02:13:57;10.02;;;6.70;;
38132;SDS011;23948;43.252;26.572;2023-04-25T02:16:22;12.15;;;6.30;;
38132;SDS011;23948;43.252;26.572;2023-04-25T02:18:48;9.68;;;6.68;;
38132;SDS011;23948;43.252;26.572;2023-04-25T02:21:13;14.98;;;6.63;;
38132;SDS011;23948;43.252;26.572;2023-04-25T02:23:38;12.52;;;6.43;;
38132;SDS011;23948;43.252;26.572;2023-04-25T02:26:04;12.77;;;7.10;;
38132;SDS011;23948;43.252;26.572;2023-04-25T02:28:29;11.35;;;6.90;;
38132;SDS011;23948;43.252;26.572;2023-04-25T02:30:55;9.25;;;6.30;;
38132;SDS011;23948;43.252;26.572;2023-04-25T02:33:20;13.05;;;7.00;;
38132;SDS011;23948;43.252;26.572;2023-04-25T02:35:46;11.63;;;6.60;;
38132;SDS011;23948;43.252;26.572;2023-04-25T02:38:11;12.85;;;7.40;;
38132;SDS011;23948;43.252;26.572;2023-04-25T02:40:36;15.32;;;6.90;;
38132;SDS011;23948;43.252;26.572;2023-04-25T02:43:02;11.32;;;7.03;;
38132;SDS011;23948;43.252;26.572;2023-04-25T02:45:27;14.48;;;6.80;;
38132;SDS011;23948;43.252;26.572;2023-04-25T02:47:52;12.20;;;6.88;;
38132;SDS011;23948;43.252;26.572;2023-04-25T02:50:17;15.93;;;8.77;;
38132;SDS011;23948;43.252;26.572;2023-04-25T02:52:43;30.00;;;17.40;;
38132;SDS011;23948;43.252;26.572;2023-04-25T02:55:08;23.38;;;13.95;;
38132;SDS011;23948;43.252;26.572;2023-04-25T02:57:34;18.63;;;10.77;;
38132;SDS011;23948;43.252;26.572;2023-04-25T02:59:59;18.88;;;10.27;;
38132;SDS011;23948;43.252;26.572;2023-04-25T03:02:24;14.05;;;9.05;;
38132;SDS011;23948;43.252;26.572;2023-04-25T03:04:50;13.90;;;8.85;;
38132;SDS011;23948;43.252;26.572;2023-04-25T03:07:15;14.30;;;9.57;;
38132;SDS011;23948;43.252;26.572;2023-04-25T03:09:40;16.75;;;9.32;;
38132;SDS011;23948;43.252;26.572;2023-04-25T03:12:05;14.40;;;9.65;;
38132;SDS011;23948;43.252;26.572;2023-04-25T03:14:31;16.15;;;10.32;;
38132;SDS011;23948;43.252;26.572;2023-04-25T03:16:56;16.20;;;10.48;;
38132;SDS011;23948;43.252;26.572;2023-04-25T03:19:21;17.83;;;9.95;;
38132;SDS011;23948;43.252;26.572;2023-04-25T03:21:47;18.30;;;10.63;;
38132;SDS011;23948;43.252;26.572;2023-04-25T03:24:12;19.00;;;10.40;;
38132;SDS011;23948;43.252;26.572;2023-04-25T03:26:37;14.73;;;9.05;;
38132;SDS011;23948;43.252;26.572;2023-04-25T03:29:02;12.93;;;9.20;;
38132;SDS011;23948;43.252;26.572;2023-04-25T03:31:28;15.25;;;9.55;;
38132;SDS011;23948;43.252;26.572;2023-04-25T03:33:53;20.13;;;11.15;;
38132;SDS011;23948;43.252;26.572;2023-04-25T03:36:18;16.60;;;10.38;;
38132;SDS011;23948;43.252;26.572;2023-04-25T03:38:44;16.98;;;9.95;;
38132;SDS011;23948;43.252;26.572;2023-04-25T03:41:09;18.30;;;10.50;;
38132;SDS011;23948;43.252;26.572;2023-04-25T03:43:34;21.85;;;9.95;;
38132;SDS011;23948;43.252;26.572;2023-04-25T03:46:00;19.15;;;11.02;;
38132;SDS011;23948;43.252;26.572;2023-04-25T03:48:25;16.25;;;10.50;;
38132;SDS011;23948;43.252;26.572;2023-04-25T03:50:51;21.67;;;10.50;;
38132;SDS011;23948;43.252;26.572;2023-04-25T03:53:17;20.83;;;10.88;;
38132;SDS011;23948;43.252;26.572;2023-04-25T03:55:42;17.48;;;10.73;;
38132;SDS011;23948;43.252;26.572;2023-04-25T03:58:07;17.60;;;12.10;;
38132;SDS011;23948;43.252;26.572;2023-04-25T04:00:34;24.05;;;14.05;;
38132;SDS011;23948;43.252;26.572;2023-04-25T04:02:59;19.88;;;11.45;;
38132;SDS011;23948;43.252;26.572;2023-04-25T04:05:24;22.00;;;12.27;;
38132;SDS011;23948;43.252;26.572;2023-04-25T04:07:50;18.73;;;12.38;;
38132;SDS011;23948;43.252;26.572;2023-04-25T04:10:15;19.02;;;12.52;;
38132;SDS011;23948;43.252;26.572;2023-04-25T04:12:40;25.55;;;12.68;;
38132;SDS011;23948;43.252;26.572;2023-04-25T04:15:06;21.98;;;13.23;;
38132;SDS011;23948;43.252;26.572;2023-04-25T04:17:32;26.80;;;14.48;;
38132;SDS011;23948;43.252;26.572;2023-04-25T04:19:57;27.20;;;16.58;;
38132;SDS011;23948;43.252;26.572;2023-04-25T04:22:23;26.75;;;15.73;;
38132;SDS011;23948;43.252;26.572;2023-04-25T04:24:48;25.63;;;14.32;;
38132;SDS011;23948;43.252;26.572;2023-04-25T04:27:15;20.58;;;15.25;;
38132;SDS011;23948;43.252;26.572;2023-04-25T04:29:42;29.90;;;14.65;;
38132;SDS011;23948;43.252;26.572;2023-04-25T04:32:07;15.20;;;9.32;;
38132;SDS011;23948;43.252;26.572;2023-04-25T04:34:33;20.02;;;9.35;;
38132;SDS011;23948;43.252;26.572;2023-04-25T04:36:59;15.20;;;10.32;;
38132;SDS011;23948;43.252;26.572;2023-04-25T04:39:25;18.92;;;11.00;;
38132;SDS011;23948;43.252;26.572;2023-04-25T04:41:50;15.95;;;9.98;;
38132;SDS011;23948;43.252;26.572;2023-04-25T04:44:16;21.23;;;12.35;;
38132;SDS011;23948;43.252;26.572;2023-04-25T04:46:41;23.35;;;12.15;;
38132;SDS011;23948;43.252;26.572;2023-04-25T04:49:10;19.73;;;11.80;;
38132;SDS011;23948;43.252;26.572;2023-04-25T04:51:35;16.88;;;11.73;;
38132;SDS011;23948;43.252;26.572;2023-04-25T04:54:01;17.85;;;11.57;;
38132;SDS011;23948;43.252;26.572;2023-04-25T04:56:28;20.60;;;12.63;;
38132;SDS011;23948;43.252;26.572;2023-04-25T04:58:54;20.65;;;11.57;;
38132;SDS011;23948;43.252;26.572;2023-04-25T05:01:19;21.73;;;11.95;;
38132;SDS011;23948;43.252;26.572;2023-04-25T05:03:45;23.05;;;12.45;;
38132;SDS011;23948;43.252;26.572;2023-04-25T05:06:10;20.98;;;12.05;;
38132;SDS011;23948;43.252;26.572;2023-04-25T05:08:38;15.90;;;11.25;;
38132;SDS011;23948;43.252;26.572;2023-04-25T05:11:03;46.30;;;32.03;;
38132;SDS011;23948;43.252;26.572;2023-04-25T05:13:28;22.13;;;14.43;;
38132;SDS011;23948;43.252;26.572;2023-04-25T05:15:54;26.92;;;12.82;;
38132;SDS011;23948;43.252;26.572;2023-04-25T05:18:19;35.38;;;19.10;;
38132;SDS011;23948;43.252;26.572;2023-04-25T05:20:44;20.88;;;13.18;;
38132;SDS011;23948;43.252;26.572;2023-04-25T05:23:10;20.42;;;12.43;;
38132;SDS011;23948;43.252;26.572;2023-04-25T05:25:35;21.38;;;12.40;;
38132;SDS011;23948;43.252;26.572;2023-04-25T05:28:00;21.55;;;13.05;;
38132;SDS011;23948;43.252;26.572;2023-04-25T05:30:26;24.48;;;12.73;;
38132;SDS011;23948;43.252;26.572;2023-04-25T05:32:51;22.67;;;12.45;;
38132;SDS011;23948;43.252;26.572;2023-04-25T05:35:16;23.17;;;11.32;;
38132;SDS011;23948;43.252;26.572;2023-04-25T05:37:41;19.38;;;10.82;;
38132;SDS011;23948;43.252;26.572;2023-04-25T05:40:07;21.80;;;11.43;;
38132;SDS011;23948;43.252;26.572;2023-04-25T05:42:33;23.40;;;10.85;;
38132;SDS011;23948;43.252;26.572;2023-04-25T05:44:58;83.63;;;55.75;;
38132;SDS011;23948;43.252;26.572;2023-04-25T05:47:23;38.50;;;22.85;;
38132;SDS011;23948;43.252;26.572;2023-04-25T05:49:48;24.83;;;15.00;;
38132;SDS011;23948;43.252;26.572;2023-04-25T05:52:14;22.33;;;11.48;;
38132;SDS011;23948;43.252;26.572;2023-04-25T05:54:40;67.50;;;43.17;;
38132;SDS011;23948;43.252;26.572;2023-04-25T05:57:05;46.70;;;30.08;;
38132;SDS011;23948;43.252;26.572;2023-04-25T05:59:31;30.17;;;14.77;;
38132;SDS011;23948;43.252;26.572;2023-04-25T06:01:56;25.05;;;12.75;;
38132;SDS011;23948;43.252;26.572;2023-04-25T06:04:21;21.00;;;10.98;;
38132;SDS011;23948;43.252;26.572;2023-04-25T06:06:47;25.52;;;12.57;;
38132;SDS011;23948;43.252;26.572;2023-04-25T06:09:12;20.20;;;10.90;;
38132;SDS011;23948;43.252;26.572;2023-04-25T06:11:37;24.55;;;11.65;;
38132;SDS011;23948;43.252;26.572;2023-04-25T06:14:02;32.67;;;17.85;;
38132;SDS011;23948;43.252;26.572;2023-04-25T06:16:28;20.55;;;13.15;;
38132;SDS011;23948;43.252;26.572;2023-04-25T06:18:53;21.25;;;11.73;;
38132;SDS011;23948;43.252;26.572;2023-04-25T06:21:18;19.52;;;11.02;;
38132;SDS011;23948;43.252;26.572;2023-04-25T06:23:43;18.73;;;11.43;;
38132;SDS011;23948;43.252;26.572;2023-04-25T06:26:09;22.05;;;10.60;;
38132;SDS011;23948;43.252;26.572;2023-04-25T06:28:34;17.90;;;10.60;;
38132;SDS011;23948;43.252;26.572;2023-04-25T06:30:59;20.90;;;12.95;;
38132;SDS011;23948;43.252;26.572;2023-04-25T06:33:25;12.80;;;6.78;;
38132;SDS011;23948;43.252;26.572;2023-04-25T06:35:50;13.25;;;6.80;;
38132;SDS011;23948;43.252;26.572;2023-04-25T06:38:15;12.45;;;6.80;;
38132;SDS011;23948;43.252;26.572;2023-04-25T06:40:41;11.85;;;6.75;;
38132;SDS011;23948;43.252;26.572;2023-04-25T06:43:06;10.82;;;6.05;;
38132;SDS011;23948;43.252;26.572;2023-04-25T06:45:31;9.18;;;5.80;;
38132;SDS011;23948;43.252;26.572;2023-04-25T06:47:57;11.77;;;6.35;;
38132;SDS011;23948;43.252;26.572;2023-04-25T06:50:22;12.00;;;6.78;;
38132;SDS011;23948;43.252;26.572;2023-04-25T06:52:47;11.52;;;6.35;;
38132;SDS011;23948;43.252;26.572;2023-04-25T06:55:12;12.48;;;6.00;;
38132;SDS011;23948;43.252;26.572;2023-04-25T06:57:38;14.00;;;6.43;;
38132;SDS011;23948;43.252;26.572;2023-04-25T07:00:03;10.13;;;6.13;;
38132;SDS011;23948;43.252;26.572;2023-04-25T07:02:30;11.93;;;6.18;;
38132;SDS011;23948;43.252;26.572;2023-04-25T07:04:55;17.10;;;7.25;;
38132;SDS011;23948;43.252;26.572;2023-04-25T07:07:24;12.52;;;6.38;;
38132;SDS011;23948;43.252;26.572;2023-04-25T07:09:50;16.73;;;9.13;;
38132;SDS011;23948;43.252;26.572;2023-04-25T07:12:15;12.00;;;6.15;;
38132;SDS011;23948;43.252;26.572;2023-04-25T07:14:40;11.23;;;6.50;;
38132;SDS011;23948;43.252;26.572;2023-04-25T07:17:06;11.55;;;6.25;;
38132;SDS011;23948;43.252;26.572;2023-04-25T07:19:32;17.98;;;9.38;;
38132;SDS011;23948;43.252;26.572;2023-04-25T07:21:58;14.85;;;7.30;;
38132;SDS011;23948;43.252;26.572;2023-04-25T07:24:23;11.93;;;6.20;;
38132;SDS011;23948;43.252;26.572;2023-04-25T07:26:48;14.30;;;7.35;;
38132;SDS011;23948;43.252;26.572;2023-04-25T07:29:13;14.70;;;8.63;;
38132;SDS011;23948;43.252;26.572;2023-04-25T07:31:39;12.70;;;8.02;;
38132;SDS011;23948;43.252;26.572;2023-04-25T07:34:04;12.98;;;7.60;;
38132;SDS011;23948;43.252;26.572;2023-04-25T07:36:30;15.05;;;6.95;;
38132;SDS011;23948;43.252;26.572;2023-04-25T07:38:56;13.40;;;6.93;;
38132;SDS011;23948;43.252;26.572;2023-04-25T07:41:21;18.15;;;7.95;;
38132;SDS011;23948;43.252;26.572;2023-04-25T07:43:47;14.18;;;8.07;;
38132;SDS011;23948;43.252;26.572;2023-04-25T07:46:12;14.80;;;7.00;;
38132;SDS011;23948;43.252;26.572;2023-04-25T07:48:37;12.18;;;6.13;;
38132;SDS011;23948;43.252;26.572;2023-04-25T07:51:03;14.20;;;6.55;;
38132;SDS011;23948;43.252;26.572;2023-04-25T07:53:30;10.02;;;6.95;;
38132;SDS011;23948;43.252;26.572;2023-04-25T07:55:55;12.88;;;6.85;;
38132;SDS011;23948;43.252;26.572;2023-04-25T07:58:20;13.68;;;7.07;;
38132;SDS011;23948;43.252;26.572;2023-04-25T08:00:47;13.18;;;7.45;;
38132;SDS011;23948;43.252;26.572;2023-04-25T08:03:12;17.95;;;7.68;;
38132;SDS011;23948;43.252;26.572;2023-04-25T08:05:37;15.18;;;7.55;;
38132;SDS011;23948;43.252;26.572;2023-04-25T08:08:03;15.15;;;6.93;;
38132;SDS011;23948;43.252;26.572;2023-04-25T08:10:29;15.10;;;6.22;;
38132;SDS011;23948;43.252;26.572;2023-04-25T08:12:54;11.27;;;5.90;;
38132;SDS011;23948;43.252;26.572;2023-04-25T08:15:20;14.45;;;6.68;;
38132;SDS011;23948;43.252;26.572;2023-04-25T08:17:45;10.55;;;6.32;;
38132;SDS011;23948;43.252;26.572;2023-04-25T08:20:11;18.20;;;6.43;;
38132;SDS011;23948;43.252;26.572;2023-04-25T08:22:36;12.65;;;5.68;;
38132;SDS011;23948;43.252;26.572;2023-04-25T08:25:02;13.93;;;6.32;;
38132;SDS011;23948;43.252;26.572;2023-04-25T08:27:27;13.20;;;5.97;;
38132;SDS011;23948;43.252;26.572;2023-04-25T08:29:53;13.68;;;5.88;;
38132;SDS011;23948;43.252;26.572;2023-04-25T08:32:18;15.50;;;6.53;;
38132;SDS011;23948;43.252;26.572;2023-04-25T08:34:43;14.23;;;6.30;;
38132;SDS011;23948;43.252;26.572;2023-04-25T08:37:09;13.50;;;6.38;;
38132;SDS011;23948;43.252;26.572;2023-04-25T08:39:37;22.63;;;6.88;;
38132;SDS011;23948;43.252;26.572;2023-04-25T08:42:04;14.25;;;5.35;;
38132;SDS011;23948;43.252;26.572;2023-04-25T08:44:32;12.95;;;5.45;;
38132;SDS011;23948;43.252;26.572;2023-04-25T08:46:58;12.02;;;5.55;;
38132;SDS011;23948;43.252;26.572;2023-04-25T08:49:23;9.15;;;5.38;;
38132;SDS011;23948;43.252;26.572;2023-04-25T08:51:49;10.82;;;5.10;;
38132;SDS011;23948;43.252;26.572;2023-04-25T08:54:16;10.48;;;6.10;;
38132;SDS011;23948;43.252;26.572;2023-04-25T08:56:45;10.77;;;6.55;;
38132;SDS011;23948;43.252;26.572;2023-04-25T08:59:12;12.60;;;6.53;;
38132;SDS011;23948;43.252;26.572;2023-04-25T09:01:38;11.48;;;4.90;;
38132;SDS011;23948;43.252;26.572;2023-04-25T09:04:03;7.07;;;3.55;;
38132;SDS011;23948;43.252;26.572;2023-04-25T09:06:29;13.18;;;4.32;;
38132;SDS011;23948;43.252;26.572;2023-04-25T09:09:00;8.77;;;4.03;;
38132;SDS011;23948;43.252;26.572;2023-04-25T09:11:26;7.97;;;3.65;;
38132;SDS011;23948;43.252;26.572;2023-04-25T09:13:51;5.30;;;2.60;;
38132;SDS011;23948;43.252;26.572;2023-04-25T09:16:34;6.47;;;2.67;;
38132;SDS011;23948;43.252;26.572;2023-04-25T09:19:00;5.22;;;2.80;;
38132;SDS011;23948;43.252;26.572;2023-04-25T09:21:25;5.03;;;2.40;;
38132;SDS011;23948;43.252;26.572;2023-04-25T09:23:50;4.50;;;2.42;;
38132;SDS011;23948;43.252;26.572;2023-04-25T09:26:17;6.80;;;2.90;;
38132;SDS011;23948;43.252;26.572;2023-04-25T09:28:43;5.75;;;2.55;;
38132;SDS011;23948;43.252;26.572;2023-04-25T09:31:09;6.45;;;2.55;;
38132;SDS011;23948;43.252;26.572;2023-04-25T09:33:35;5.40;;;1.90;;
38132;SDS011;23948;43.252;26.572;2023-04-25T09:36:01;5.55;;;1.40;;
38132;SDS011;23948;43.252;26.572;2023-04-25T09:38:27;3.25;;;1.80;;
38132;SDS011;23948;43.252;26.572;2023-04-25T09:40:54;2.95;;;1.58;;
38132;SDS011;23948;43.252;26.572;2023-04-25T09:43:23;7.25;;;1.60;;
38132;SDS011;23948;43.252;26.572;2023-04-25T09:45:50;5.20;;;1.30;;
38132;SDS011;23948;43.252;26.572;2023-04-25T09:48:22;2.33;;;1.60;;
38132;SDS011;23948;43.252;26.572;2023-04-25T09:53:28;3.53;;;1.60;;
38132;SDS011;23948;43.252;26.572;2023-04-25T09:55:53;2.50;;;1.67;;
38132;SDS011;23948;43.252;26.572;2023-04-25T09:58:20;3.67;;;2.03;;
38132;SDS011;23948;43.252;26.572;2023-04-25T10:00:45;3.40;;;1.70;;
38132;SDS011;23948;43.252;26.572;2023-04-25T10:03:11;3.63;;;1.58;;
38132;SDS011;23948;43.252;26.572;2023-04-25T10:05:37;3.45;;;1.77;;
38132;SDS011;23948;43.252;26.572;2023-04-25T10:08:02;3.78;;;1.80;;
38132;SDS011;23948;43.252;26.572;2023-04-25T10:10:31;3.10;;;1.50;;
38132;SDS011;23948;43.252;26.572;2023-04-25T10:13:02;6.18;;;1.80;;
38132;SDS011;23948;43.252;26.572;2023-04-25T10:15:27;4.00;;;1.42;;
38132;SDS011;23948;43.252;26.572;2023-04-25T10:17:53;5.07;;;1.60;;
38132;SDS011;23948;43.252;26.572;2023-04-25T10:20:18;2.78;;;1.55;;
38132;SDS011;23948;43.252;26.572;2023-04-25T10:22:44;2.65;;;1.55;;
38132;SDS011;23948;43.252;26.572;2023-04-25T10:25:10;5.07;;;1.90;;
38132;SDS011;23948;43.252;26.572;2023-04-25T10:27:36;2.13;;;1.67;;
38132;SDS011;23948;43.252;26.572;2023-04-25T10:30:06;5.28;;;2.00;;
38132;SDS011;23948;43.252;26.572;2023-04-25T10:32:35;3.92;;;1.80;;
38132;SDS011;23948;43.252;26.572;2023-04-25T10:40:22;3.53;;;1.60;;
38132;SDS011;23948;43.252;26.572;2023-04-25T10:42:48;3.15;;;1.52;;
38132;SDS011;23948;43.252;26.572;2023-04-25T10:45:13;6.10;;;1.42;;
38132;SDS011;23948;43.252;26.572;2023-04-25T10:47:48;4.45;;;1.60;;
38132;SDS011;23948;43.252;26.572;2023-04-25T10:50:14;3.75;;;1.48;;
38132;SDS011;23948;43.252;26.572;2023-04-25T10:52:40;6.03;;;1.50;;
38132;SDS011;23948;43.252;26.572;2023-04-25T10:55:05;2.90;;;1.30;;
38132;SDS011;23948;43.252;26.572;2023-04-25T10:57:38;4.95;;;1.60;;
38132;SDS011;23948;43.252;26.572;2023-04-25T11:02:30;2.95;;;1.65;;
38132;SDS011;23948;43.252;26.572;2023-04-25T11:04:55;5.07;;;1.70;;
38132;SDS011;23948;43.252;26.572;2023-04-25T11:07:34;3.70;;;1.60;;
38132;SDS011;23948;43.252;26.572;2023-04-25T11:10:03;4.35;;;1.88;;
38132;SDS011;23948;43.252;26.572;2023-04-25T11:12:29;3.80;;;1.60;;
38132;SDS011;23948;43.252;26.572;2023-04-25T11:14:59;4.40;;;1.50;;
38132;SDS011;23948;43.252;26.572;2023-04-25T11:17:26;3.75;;;1.60;;
38132;SDS011;23948;43.252;26.572;2023-04-25T11:19:51;3.42;;;1.35;;
38132;SDS011;23948;43.252;26.572;2023-04-25T11:22:16;4.07;;;1.17;;
38132;SDS011;23948;43.252;26.572;2023-04-25T11:24:42;2.38;;;1.40;;
38132;SDS011;23948;43.252;26.572;2023-04-25T11:27:07;2.40;;;1.30;;
38132;SDS011;23948;43.252;26.572;2023-04-25T11:29:33;1.90;;;1.30;;
38132;SDS011;23948;43.252;26.572;2023-04-25T11:31:59;5.65;;;1.40;;
38132;SDS011;23948;43.252;26.572;2023-04-25T11:34:26;3.08;;;1.50;;
38132;SDS011;23948;43.252;26.572;2023-04-25T11:36:51;3.22;;;1.60;;
38132;SDS011;23948;43.252;26.572;2023-04-25T11:39:18;2.10;;;1.30;;
38132;SDS011;23948;43.252;26.572;2023-04-25T11:41:43;3.55;;;1.38;;
38132;SDS011;23948;43.252;26.572;2023-04-25T11:44:09;2.05;;;1.30;;
38132;SDS011;23948;43.252;26.572;2023-04-25T11:46:34;3.38;;;1.30;;
38132;SDS011;23948;43.252;26.572;2023-04-25T11:49:00;6.38;;;1.80;;
38132;SDS011;23948;43.252;26.572;2023-04-25T11:51:25;5.07;;;1.30;;
38132;SDS011;23948;43.252;26.572;2023-04-25T11:53:51;3.38;;;1.35;;
38132;SDS011;23948;43.252;26.572;2023-04-25T11:56:16;5.13;;;1.60;;
38132;SDS011;23948;43.252;26.572;2023-04-25T11:58:57;3.85;;;1.50;;
38132;SDS011;23948;43.252;26.572;2023-04-25T12:01:30;57.22;;;4.75;;
38132;SDS011;23948;43.252;26.572;2023-04-25T12:03:56;37.83;;;3.72;;
38132;SDS011;23948;43.252;26.572;2023-04-25T12:06:25;18.52;;;2.45;;
38132;SDS011;23948;43.252;26.572;2023-04-25T12:09:01;17.23;;;2.55;;
38132;SDS011;23948;43.252;26.572;2023-04-25T12:11:29;18.38;;;1.90;;
38132;SDS011;23948;43.252;26.572;2023-04-25T12:13:54;4.13;;;1.45;;
38132;SDS011;23948;43.252;26.572;2023-04-25T12:16:20;4.50;;;1.40;;
38132;SDS011;23948;43.252;26.572;2023-04-25T12:18:45;4.53;;;1.20;;
38132;SDS011;23948;43.252;26.572;2023-04-25T12:21:10;2.85;;;1.60;;
38132;SDS011;23948;43.252;26.572;2023-04-25T12:23:38;2.33;;;1.23;;
38132;SDS011;23948;43.252;26.572;2023-04-25T12:26:04;6.53;;;1.50;;
38132;SDS011;23948;43.252;26.572;2023-04-25T12:28:31;3.63;;;1.40;;
38132;SDS011;23948;43.252;26.572;2023-04-25T12:31:04;3.85;;;1.70;;
38132;SDS011;23948;43.252;26.572;2023-04-25T12:33:31;3.00;;;1.60;;
38132;SDS011;23948;43.252;26.572;2023-04-25T12:35:57;2.72;;;1.20;;
38132;SDS011;23948;43.252;26.572;2023-04-25T12:40:48;4.75;;;1.70;;
38132;SDS011;23948;43.252;26.572;2023-04-25T12:43:13;6.07;;;1.80;;
38132;SDS011;23948;43.252;26.572;2023-04-25T12:45:39;4.95;;;2.30;;
38132;SDS011;23948;43.252;26.572;2023-04-25T12:48:05;5.25;;;2.10;;
38132;SDS011;23948;43.252;26.572;2023-04-25T12:50:30;10.05;;;2.70;;
38132;SDS011;23948;43.252;26.572;2023-04-25T12:52:56;9.20;;;3.35;;
38132;SDS011;23948;43.252;26.572;2023-04-25T12:55:21;5.38;;;2.42;;
38132;SDS011;23948;43.252;26.572;2023-04-25T12:57:46;7.03;;;2.75;;
38132;SDS011;23948;43.252;26.572;2023-04-25T13:00:12;8.52;;;3.72;;
38132;SDS011;23948;43.252;26.572;2023-04-25T13:02:39;8.30;;;3.60;;
38132;SDS011;23948;43.252;26.572;2023-04-25T13:05:05;7.00;;;2.90;;
38132;SDS011;23948;43.252;26.572;2023-04-25T13:07:30;5.75;;;3.00;;
38132;SDS011;23948;43.252;26.572;2023-04-25T13:09:56;7.38;;;2.55;;
38132;SDS011;23948;43.252;26.572;2023-04-25T13:12:21;7.43;;;3.00;;
38132;SDS011;23948;43.252;26.572;2023-04-25T13:14:46;9.15;;;2.88;;
38132;SDS011;23948;43.252;26.572;2023-04-25T13:17:12;8.40;;;2.90;;
38132;SDS011;23948;43.252;26.572;2023-04-25T13:19:37;5.47;;;2.80;;
38132;SDS011;23948;43.252;26.572;2023-04-25T13:22:03;6.78;;;3.60;;
38132;SDS011;23948;43.252;26.572;2023-04-25T13:24:29;5.07;;;2.35;;
38132;SDS011;23948;43.252;26.572;2023-04-25T13:26:54;5.68;;;3.00;;
38132;SDS011;23948;43.252;26.572;2023-04-25T13:29:20;6.35;;;3.00;;
38132;SDS011;23948;43.252;26.572;2023-04-25T13:31:45;4.45;;;2.53;;
38132;SDS011;23948;43.252;26.572;2023-04-25T13:34:10;6.90;;;3.58;;
38132;SDS011;23948;43.252;26.572;2023-04-25T13:36:37;45.70;;;29.55;;
38132;SDS011;23948;43.252;26.572;2023-04-25T13:39:03;10.40;;;6.00;;
38132;SDS011;23948;43.252;26.572;2023-04-25T13:41:29;5.28;;;3.53;;
38132;SDS011;23948;43.252;26.572;2023-04-25T13:43:54;3.72;;;2.28;;
38132;SDS011;23948;43.252;26.572;2023-04-25T13:46:20;5.43;;;3.47;;
38132;SDS011;23948;43.252;26.572;2023-04-25T13:48:45;7.15;;;4.00;;
38132;SDS011;23948;43.252;26.572;2023-04-25T13:51:14;7.85;;;3.22;;
38132;SDS011;23948;43.252;26.572;2023-04-25T13:53:39;5.32;;;2.80;;
38132;SDS011;23948;43.252;26.572;2023-04-25T13:56:05;4.30;;;2.38;;
38132;SDS011;23948;43.252;26.572;2023-04-25T13:58:30;4.93;;;2.45;;
38132;SDS011;23948;43.252;26.572;2023-04-25T14:00:57;5.05;;;2.00;;
38132;SDS011;23948;43.252;26.572;2023-04-25T14:03:22;4.22;;;2.25;;
38132;SDS011;23948;43.252;26.572;2023-04-25T14:05:47;4.53;;;2.55;;
38132;SDS011;23948;43.252;26.572;2023-04-25T14:08:16;7.20;;;2.75;;
38132;SDS011;23948;43.252;26.572;2023-04-25T14:10:41;5.93;;;2.85;;
38132;SDS011;23948;43.252;26.572;2023-04-25T14:13:06;4.15;;;2.38;;
38132;SDS011;23948;43.252;26.572;2023-04-25T14:15:32;4.32;;;2.60;;
38132;SDS011;23948;43.252;26.572;2023-04-25T14:17:58;4.07;;;2.40;;
38132;SDS011;23948;43.252;26.572;2023-04-25T14:20:23;3.17;;;1.75;;
38132;SDS011;23948;43.252;26.572;2023-04-25T14:22:49;2.72;;;1.70;;
38132;SDS011;23948;43.252;26.572;2023-04-25T14:25:14;5.18;;;2.00;;
38132;SDS011;23948;43.252;26.572;2023-04-25T14:27:39;3.10;;;1.98;;